Blake Denton — WDC7496 — position and weather

sailwx.info

Track history (hours):
 
Tides and Currents Weather Stations Pressure Air Temp Water Temp Dewpoint Dewpoint Depression Visibility Wind Speed Wind Dir Waves Ship Positions

Blake Denton

Owner: Marquette Transportation, Paducah, KY. More information available from US FCC via Universal Licensing System and Coast Guard Vessel Documentation Center.

Last reported at 2015-Jul-01 10:33 UTC. Time now 2015-Jul-04 01:40 UTC.
Position N 30°02' W 090°28'.

Length 52 m; draft 3.4 m.

Type: Towing. MMSI: 367072210.

Date/timePositionNaut miles runAvg speedWind from/ knotsBaromVisibWave heightAir tempDewpointWater temp
2015-Jul-01 10:33N 30°02' W 090°28'4 3.5
2015-Jul-01 09:28N 29°60' W 090°25'4 4.4
2015-Jul-01 08:33N 29°56' W 090°22'1 0.6
2015-Jul-01 07:15N 29°56' W 090°21'0 0.0
2015-Jun-30 10:26N 29°56' W 090°22'44 1.8
2015-Jun-29 10:33N 30°16' W 091°07'4 2.9
2015-Jun-29 09:18N 30°19' W 091°09'5 6.9
2015-Jun-29 08:33N 30°21' W 091°14'4 4.0
2015-Jun-29 07:34N 30°25' W 091°12'0 0.0
2015-Jun-29 06:33N 30°25' W 091°12'0 0.0
2015-Jun-29 05:33N 30°25' W 091°12'5 4.8
2015-Jun-29 04:33N 30°29' W 091°12'4 4.2
2015-Jun-29 03:33N 30°30' W 091°17'6 5.9
2015-Jun-29 02:33N 30°36' W 091°18'9 8.5
2015-Jun-29 01:32N 30°44' W 091°21'  
Track history (hours):
 
Tides and Currents Weather Stations Pressure Air Temp Water Temp Dewpoint Dewpoint Depression Visibility Wind Speed Wind Dir Waves Ship Positions

Blake Denton

Owner: Marquette Transportation, Paducah, KY. More information available from US FCC via Universal Licensing System and Coast Guard Vessel Documentation Center.

Last reported at 2015-Jul-01 10:33 UTC. Time now 2015-Jul-04 01:40 UTC.
Position N 30°02' W 090°28'.

Length 52 m; draft 3.4 m.

Type: Towing. MMSI: 367072210.

Date/timePositionNaut miles runAvg speedWind from/ knotsBaromVisibWave heightAir tempDewpointWater temp
2015-Jul-01 10:33N 30°02' W 090°28'4 3.5
2015-Jul-01 09:28N 29°60' W 090°25'4 4.4
2015-Jul-01 08:33N 29°56' W 090°22'1 0.6
2015-Jul-01 07:15N 29°56' W 090°21'0 0.0
2015-Jun-30 10:26N 29°56' W 090°22'44 1.8
2015-Jun-29 10:33N 30°16' W 091°07'4 2.9
2015-Jun-29 09:18N 30°19' W 091°09'5 6.9
2015-Jun-29 08:33N 30°21' W 091°14'4 4.0
2015-Jun-29 07:34N 30°25' W 091°12'0 0.0
2015-Jun-29 06:33N 30°25' W 091°12'0 0.0
2015-Jun-29 05:33N 30°25' W 091°12'5 4.8
2015-Jun-29 04:33N 30°29' W 091°12'4 4.2
2015-Jun-29 03:33N 30°30' W 091°17'6 5.9
2015-Jun-29 02:33N 30°36' W 091°18'9 8.5
2015-Jun-29 01:32N 30°44' W 091°21'  

Dump ship's entire track history